Minersville, Ohio
Current Conditions -  °F | °C
As of 9:55 AM on Wednesday 22 Oct 2014 (Local Time) from KUNI Reporting Station
Overcast Overcast  
Wind Chill: 44°   Ceiling: 1400
Heat Index: 47°   Visibility: 10mi
Dew Point: 42°   Wind: 7mph
Humidity: 82%   Direction: 330°NNW
Pressure: 30.21"   Gusts: NA
Location:  39.1049°N, 82.0431°W
Report Text: KUNI 221355Z AUTO 33006KT 10SM OVC014 09/06 A3021 RMK AO2 T00860056
Loading
Personal Weather Stations






























Interactive Weather Map
Tropical Storm Tracking
New forecast layout! Learn more

10-Day Weather Forecast

Advertisements
Track Severe Weather on mobile